sensor_id;sensor_type;location;lat;lon;timestamp;pressure;altitude;pressure_sealevel;temperature;humidity
15558;BME280;7880;50.110;9.372;2024-01-30T00:03:55;0.13108415903989226;;;0.312;100.0
15558;BME280;7880;50.110;9.372;2024-01-30T00:09:09;0.2823353562504053;;;0.375;100.0
15558;BME280;7880;50.110;9.372;2024-01-30T00:14:14;0.16133437752723695;;;0.375;100.0
15558;BME280;7880;50.110;9.372;2024-01-30T00:19:11;0.1865429009369109;;;0.312;100.0
15558;BME280;7880;50.110;9.372;2024-01-30T00:24:17;0.1764594906999264;;;0.312;100.0
15558;BME280;7880;50.110;9.372;2024-01-30T00:29:22;0.10587565163732507;;;0.312;100.0
15558;BME280;7880;50.110;9.372;2024-01-30T00:34:26;0.21679313863278366;;;0.312;100.0
15558;BME280;7880;50.110;9.372;2024-01-30T00:39:23;0.19158460649196057;;;0.375;100.0
15558;BME280;7880;50.110;9.372;2024-01-30T00:44:28;0.1815011956728995;;;0.312;100.0
15558;BME280;7880;50.110;9.372;2024-01-30T00:49:28;0.1260424569773022;;;0.312;100.0
15558;BME280;7880;50.110;9.372;2024-01-30T00:54:35;0.08066715151071549;;;0.25;100.0
15558;BME280;7880;50.110;9.372;2024-01-30T00:59:35;0.1966263123380486;;;0.312;100.0
15558;BME280;7880;50.110;9.372;2024-01-30T01:04:45;0.09579225071356631;;;0.25;100.0
15558;BME280;7880;50.110;9.372;2024-01-30T01:09:44;0.11091735253576189;;;0.187;100.0
15558;BME280;7880;50.110;9.372;2024-01-30T01:14:43;0.07562545235850848;;;0.187;100.0
15558;BME280;7880;50.110;9.372;2024-01-30T01:19:47;0.07058375349733978;;;0.187;100.0
15558;BME280;7880;50.110;9.372;2024-01-30T01:24:55;0.03025017308536917;;;0.187;100.0
15558;BME280;7880;50.110;9.372;2024-01-30T01:29:59;0.07562545235850848;;;0.187;100.0
15558;BME280;7880;50.110;9.372;2024-01-30T01:35:11;0.13108415903989226;;;0.187;100.0
15558;BME280;7880;50.110;9.372;2024-01-30T01:40:05;0.0605003566481173;;;0.25;100.0
15558;BME280;7880;50.110;9.372;2024-01-30T01:45:07;-0.10587552328943275;;;0.125;100.0
15558;BME280;7880;50.110;9.372;2024-01-30T01:50:10;-0.09579214564873836;;;0.125;100.0
15558;BME280;7880;50.110;9.372;2024-01-30T01:55:17;-0.015125082613667473;;;0.125;100.0
15558;BME280;7880;50.110;9.372;2024-01-30T02:00:20;0.005041694786632434;;;0.187;100.0
15558;BME280;7880;50.110;9.372;2024-01-30T02:05:26;0.010083389864303172;;;0.125;100.0
15558;BME280;7880;50.110;9.372;2024-01-30T02:10:27;0.015125085233012214;;;0.125;100.0
15558;BME280;7880;50.110;9.372;2024-01-30T02:15:30;0.040333566442132;;;0.125;100.0
15558;BME280;7880;50.110;9.372;2024-01-30T02:20:35;-0.0252084695675876;;;0.125;100.0
15558;BME280;7880;50.110;9.372;2024-01-30T02:25:40;-0.11091721167322248;;;0.0;100.0
15558;BME280;7880;50.110;9.372;2024-01-30T02:30:43;-0.06554200574173592;;;0.0;100.0
15558;BME280;7880;50.110;9.372;2024-01-30T02:35:48;-0.10587552328943275;;;0.0;100.0
15558;BME280;7880;50.110;9.372;2024-01-30T02:40:49;-0.3176261848246213;;;-0.125;100.0
15558;BME280;7880;50.110;9.372;2024-01-30T02:46:00;-0.3579595859569963;;;-0.187;100.0
15558;BME280;7880;50.110;9.372;2024-01-30T02:50:59;-0.3882096245826688;;;-0.187;100.0
15558;BME280;7880;50.110;9.372;2024-01-30T02:56:06;-0.3781262795382645;;;-0.25;100.0
15558;BME280;7880;50.110;9.372;2024-01-30T03:01:04;-0.3478762374201324;;;-0.187;100.0
15558;BME280;7880;50.110;9.372;2024-01-30T03:04:40;-0.368042933329707;;;-0.187;100.0
15558;BME280;7880;50.110;9.372;2024-01-30T03:09:46;-0.33779288771911525;;;-0.187;100.0
15558;BME280;7880;50.110;9.372;2024-01-30T03:14:44;-0.39325129666831343;;;-0.25;100.0
15558;BME280;7880;50.110;9.372;2024-01-30T03:19:48;-0.42350132307037713;;;-0.25;100.0
15558;BME280;7880;50.110;9.372;2024-01-30T03:24:52;-0.4739180104574189;;;-0.25;100.0
15558;BME280;7880;50.110;9.372;2024-01-30T03:29:55;-0.42854299311875366;;;-0.312;100.0
15558;BME280;7880;50.110;9.372;2024-01-30T03:35:16;-0.39325129666831343;;;-0.25;100.0
15558;BME280;7880;50.110;9.372;2024-01-30T03:40:07;-0.5394596605503466;;;-0.312;100.0
15558;BME280;7880;50.110;9.372;2024-01-30T03:45:09;-0.39325129666831343;;;-0.25;100.0
15558;BME280;7880;50.110;9.372;2024-01-30T03:50:14;-0.4033346399664879;;;-0.25;100.0
15558;BME280;7880;50.110;9.372;2024-01-30T03:55:25;-0.42854299311875366;;;-0.25;100.0
15558;BME280;7880;50.110;9.372;2024-01-30T04:00:20;-0.5394596605503466;;;-0.312;100.0
15558;BME280;7880;50.110;9.372;2024-01-30T04:05:25;-0.6050012614578009;;;-0.375;100.0
15558;BME280;7880;50.110;9.372;2024-01-30T04:10:33;-0.5596263122220989;;;-0.437;100.0
15558;BME280;7880;50.110;9.372;2024-01-30T04:15:30;-0.781459173274925;;;-0.562;100.0
15558;BME280;7880;50.110;9.372;2024-01-30T04:20:38;-0.599959601595765;;;-0.437;100.0
15558;BME280;7880;50.110;9.372;2024-01-30T04:25:43;-0.5848346202634275;;;-0.375;100.0
15558;BME280;7880;50.110;9.372;2024-01-30T04:30:44;-0.5092096743115689;;;-0.312;100.0
15558;BME280;7880;50.110;9.372;2024-01-30T04:35:48;-0.4739180104574189;;;-0.312;100.0
15558;BME280;7880;50.110;9.372;2024-01-30T04:40:54;-0.6402928723429795;;;-0.5;100.0
15558;BME280;7880;50.110;9.372;2024-01-30T04:45:55;-0.7108760513307061;;;-0.562;100.0
15558;BME280;7880;50.110;9.372;2024-01-30T04:51:03;-1.164623697049683;;;-0.875;100.0
15558;BME280;7880;50.110;9.372;2024-01-30T04:56:06;-0.9327085282129701;;;-0.812;100.0
15558;BME280;7880;50.110;9.372;2024-01-30T05:01:08;-0.7764175235992298;;;-0.687;100.0
15558;BME280;7880;50.110;9.372;2024-01-30T05:06:11;-0.8117090652172919;;;-0.687;100.0
15558;BME280;7880;50.110;9.372;2024-01-30T05:11:16;-0.8016257690673229;;;-0.687;100.0
15558;BME280;7880;50.110;9.372;2024-01-30T05:16:20;-0.6957510892068968;;;-0.562;100.0
15558;BME280;7880;50.110;9.372;2024-01-30T05:21:23;-0.599959601595765;;;-0.5;100.0
15558;BME280;7880;50.110;9.372;2024-01-30T05:26:27;-0.7209593579580542;;;-0.562;100.0
15558;BME280;7880;50.110;9.372;2024-01-30T05:31:35;-0.8570838834857568;;;-0.625;100.0
15558;BME280;7880;50.110;9.372;2024-01-30T05:36:36;-0.6201262392976787;;;-0.5;100.0
15558;BME280;7880;50.110;9.372;2024-01-30T05:41:39;-0.6150845803087577;;;-0.437;100.0
15558;BME280;7880;50.110;9.372;2024-01-30T05:46:42;-0.5545846497407183;;;-0.437;100.0
15558;BME280;7880;50.110;9.372;2024-01-30T05:52:07;-0.7159177047898992;;;-0.562;100.0
15558;BME280;7880;50.110;9.372;2024-01-30T05:56:54;-0.7865008226595819;;;-0.687;100.0
15558;BME280;7880;50.110;9.372;2024-01-30T06:02:22;-0.746167619433254;;;-0.562;100.0
15558;BME280;7880;50.110;9.372;2024-01-30T06:07:29;-0.7159177047898992;;;-0.562;100.0
15558;BME280;7880;50.110;9.372;2024-01-30T06:12:30;-0.9125419626885559;;;-0.687;100.0
15558;BME280;7880;50.110;9.372;2024-01-30T06:17:34;-0.7713758736324963;;;-0.562;100.0
15558;BME280;7880;50.110;9.372;2024-01-30T06:22:39;-0.6856677796691656;;;-0.562;100.0
15558;BME280;7880;50.110;9.372;2024-01-30T06:27:42;-0.6503761871194002;;;-0.5;100.0
15558;BME280;7880;50.110;9.372;2024-01-30T06:32:47;-0.6302095564024057;;;-0.5;100.0
15558;BME280;7880;50.110;9.372;2024-01-30T06:38:01;-0.7108760513307061;;;-0.5;100.0
15558;BME280;7880;50.110;9.372;2024-01-30T06:42:54;-0.6705428131797817;;;-0.5;100.0
15558;BME280;7880;50.110;9.372;2024-01-30T06:48:00;-0.6050012614578009;;;-0.437;100.0
15558;BME280;7880;50.110;9.372;2024-01-30T06:53:06;-0.5243346687406302;;;-0.375;100.0
15558;BME280;7880;50.110;9.372;2024-01-30T06:58:08;-0.5445013239048422;;;-0.375;100.0
15558;BME280;7880;50.110;9.372;2024-01-30T07:03:13;-0.7512092708551791;;;-0.437;100.0
15558;BME280;7880;50.110;9.372;2024-01-30T07:08:17;-0.645334529876709;;;-0.5;100.0
15558;BME280;7880;50.110;9.372;2024-01-30T07:13:22;-0.5293763329682406;;;-0.375;100.0
15558;BME280;7880;50.110;9.372;2024-01-30T07:18:25;-0.5697096363117453;;;-0.375;100.0
15558;BME280;7880;50.110;9.372;2024-01-30T07:23:43;-0.5646679744124412;;;-0.437;100.0
15558;BME280;7880;50.110;9.372;2024-01-30T07:28:36;-0.5192930042219814;;;-0.375;100.0
15558;BME280;7880;50.110;9.372;2024-01-30T07:33:44;-0.4083763111790176;;;-0.312;100.0
15558;BME280;7880;50.110;9.372;2024-01-30T07:38:43;-0.5142513394122943;;;-0.312;100.0
15558;BME280;7880;50.110;9.372;2024-01-30T07:43:58;-0.3781262795382645;;;-0.25;100.0
15558;BME280;7880;50.110;9.372;2024-01-30T07:48:51;-0.2873761217517313;;;-0.187;100.0
15558;BME280;7880;50.110;9.372;2024-01-30T07:54:02;-0.25712604820146223;;;-0.125;100.0
15558;BME280;7880;50.110;9.372;2024-01-30T07:58:59;-0.24200100749731063;;;-0.125;100.0
15558;BME280;7880;50.110;9.372;2024-01-30T08:04:06;-0.2016675528138876;;;-0.125;100.0
15558;BME280;7880;50.110;9.372;2024-01-30T08:08:54;-0.18150081848725677;;;-0.062;100.0
15558;BME280;7880;50.110;9.372;2024-01-30T08:13:56;-0.14116733586415647;;;-0.062;100.0
15558;BME280;7880;50.110;9.372;2024-01-30T08:19:14;-0.0453752399829682;;;0.0;100.0
15558;BME280;7880;50.110;9.372;2024-01-30T08:24:09;0.0655420549272094;;;0.187;100.0
15558;BME280;7880;50.110;9.372;2024-01-30T08:29:14;0.2873770673351828;;;0.375;100.0
15558;BME280;7880;50.110;9.372;2024-01-30T08:34:24;0.46887886021868325;;;0.562;100.0
15558;BME280;7880;50.110;9.372;2024-01-30T08:39:30;0.5747550802538172;;;0.562;100.0
15558;BME280;7880;50.110;9.372;2024-01-30T08:44:24;0.6755896948510781;;;0.687;100.0
15558;BME280;7880;50.110;9.372;2024-01-30T08:49:28;0.7058401019312441;;;0.75;100.0
15558;BME280;7880;50.110;9.372;2024-01-30T08:54:37;0.8823010187188629;;;0.875;100.0
15558;BME280;7880;50.110;9.372;2024-01-30T08:59:46;0.862134038755903;;;0.937;100.0
15558;BME280;7880;50.110;9.372;2024-01-30T09:04:43;0.8873427644371986;;;1.0;100.0
15558;BME280;7880;50.110;9.372;2024-01-30T09:09:48;0.9881777399219572;;;1.0;100.0
15558;BME280;7880;50.110;9.372;2024-01-30T09:15:00;1.0839710744621698;;;1.125;100.0
15558;BME280;7880;50.110;9.372;2024-01-30T09:19:59;1.1696809891611337;;;1.125;100.0
15558;BME280;7880;50.110;9.372;2024-01-30T09:25:00;1.3158922142407392;;;1.312;100.0
15558;BME280;7880;50.110;9.372;2024-01-30T09:30:07;1.4268112379184459;;;1.437;100.0
15558;BME280;7880;50.110;9.372;2024-01-30T09:35:13;1.4822708025807514;;;1.5;100.0
15558;BME280;7880;50.110;9.372;2024-01-30T09:40:19;1.6083153986895922;;;1.625;100.0
15558;BME280;7880;50.110;9.372;2024-01-30T09:45:24;1.6889840356598143;;;1.75;100.0
15558;BME280;7880;50.110;9.372;2024-01-30T09:50:27;1.8604051366040948;;;1.875;100.0
15558;BME280;7880;50.110;9.372;2024-01-30T09:55:32;1.870488741254667;;;1.875;100.0
15558;BME280;7880;50.110;9.372;2024-01-30T10:00:33;4.366216692165471;;;4.0;100.0
15558;BME280;7880;50.110;9.372;2024-01-30T10:05:40;2.9393574361281933;;;3.5;100.0
15558;BME280;7880;50.110;9.372;2024-01-30T10:10:49;2.5864276470209004;;;2.75;100.0
15558;BME280;7880;50.110;9.372;2024-01-30T10:15:47;2.616678715922171;;;2.687;100.0
15558;BME280;7880;50.110;9.372;2024-01-30T10:20:51;2.697348284214968;;;2.75;100.0
15558;BME280;7880;50.110;9.372;2024-01-30T10:25:58;2.8082690622715747;;;2.875;100.0
15558;BME280;7880;50.110;9.372;2024-01-30T10:31:01;2.9242318444885314;;;2.937;100.0
15558;BME280;7880;50.110;9.372;2024-01-30T10:36:14;3.05027852152125;;;3.062;100.0
15558;BME280;7880;50.110;9.372;2024-01-30T10:41:19;3.2670792315155266;;;3.25;100.0
15558;BME280;7880;50.110;9.372;2024-01-30T10:46:18;3.3729588436021003;;;3.375;100.0
15558;BME280;7880;50.110;9.372;2024-01-30T10:51:20;3.614969867473701;;;3.562;100.0
15558;BME280;7880;50.110;9.372;2024-01-30T10:56:24;3.76118518600706;;;3.75;100.0
15558;BME280;7880;50.110;9.372;2024-01-30T11:01:28;3.9477361201832535;;;3.937;100.0
15558;BME280;7880;50.110;9.372;2024-01-30T11:06:41;3.937652275717119;;;4.0;100.0
15558;BME280;7880;50.110;9.372;2024-01-30T11:11:48;4.013281137589365;;;4.062;100.0
15558;BME280;7880;50.110;9.372;2024-01-30T11:16:44;4.08891006494523;;;4.125;100.0
15558;BME280;7880;50.110;9.372;2024-01-30T11:21:50;4.1897487366164565;;;4.187;100.0
15558;BME280;7880;50.110;9.372;2024-01-30T11:26:56;4.3057133529568095;;;4.375;100.0
15558;BME280;7880;50.110;9.372;2024-01-30T11:31:56;4.492265450122067;;;4.5;100.0
15558;BME280;7880;50.110;9.372;2024-01-30T11:37:05;4.618314389977604;;;4.625;100.0
15558;BME280;7880;50.110;9.372;2024-01-30T11:42:07;4.794783211365575;;;4.812;100.0
15558;BME280;7880;50.110;9.372;2024-01-30T11:47:14;4.865370839746902;;;4.937;100.0
15558;BME280;7880;50.110;9.372;2024-01-30T11:52:17;5.001504284143448;;;5.0;100.0
15558;BME280;7880;50.110;9.372;2024-01-30T11:57:19;5.132595949643291;;;5.125;100.0
15558;BME280;7880;50.110;9.372;2024-01-30T12:02:24;5.445199945941567;;;5.5;100.0
15558;BME280;7880;50.110;9.372;2024-01-30T12:07:28;5.999822692596354;;;5.937;100.0
15558;BME280;7880;50.110;9.372;2024-01-30T12:12:33;5.904023966571549;;;6.062;100.0
15558;BME280;7880;50.110;9.372;2024-01-30T12:17:37;6.25192510522902;;;6.25;100.0
15558;BME280;7880;50.110;9.372;2024-01-30T12:22:44;6.801510886760662;;;6.812;100.0
15558;BME280;7880;50.110;9.372;2024-01-30T12:27:48;6.9275631590047855;;;7.0;100.0
15558;BME280;7880;50.110;9.372;2024-01-30T12:32:53;7.552785117947496;;;7.562;100.0
15558;BME280;7880;50.110;9.372;2024-01-30T12:37:59;7.714133446686901;;;7.812;100.0
15558;BME280;7880;50.110;9.372;2024-01-30T12:43:00;7.840187035879353;;;7.937;100.0
15558;BME280;7880;50.110;9.372;2024-01-30T12:48:05;8.016662366339006;;;8.125;100.0
15558;BME280;7880;50.110;9.372;2024-01-30T12:53:09;8.112463409319753;;;8.25;100.0
15558;BME280;7880;50.110;9.372;2024-01-30T12:58:14;8.082210437027971;;;8.125;100.0
15558;BME280;7880;50.110;9.372;2024-01-30T13:03:22;8.26372842793935;;;8.312;100.0
15558;BME280;7880;50.110;9.372;2024-01-30T13:08:23;8.324234508728841;;;8.437;100.0
15558;BME280;7880;50.110;9.372;2024-01-30T13:13:01;8.162885053089122;;;8.375;100.0
15558;BME280;7880;50.110;9.372;2024-01-30T13:18:06;8.35952974187676;;;8.5;100.0
15558;BME280;7880;50.110;9.372;2024-01-30T13:23:10;8.334318859601627;;;8.437;100.0
15558;BME280;7880;50.110;9.372;2024-01-30T13:28:15;8.283897116879235;;;8.437;100.0
15558;BME280;7880;50.110;9.372;2024-01-30T13:33:24;8.278854944207705;;;8.437;100.0
15558;BME280;7880;50.110;9.372;2024-01-30T13:38:24;8.707440660294377;;;8.687;100.0
15558;BME280;7880;50.110;9.372;2024-01-30T13:43:29;9.035184097290038;;;9.062;100.0
15558;BME280;7880;50.110;9.372;2024-01-30T13:48:34;8.818369070539484;;;8.937;100.0
15558;BME280;7880;50.110;9.372;2024-01-30T13:53:41;8.65701870220364;;;8.812;100.0
15558;BME280;7880;50.110;9.372;2024-01-30T13:58:44;8.596512390911812;;;8.75;100.0
15558;BME280;7880;50.110;9.372;2024-01-30T14:03:49;8.596512390911812;;;8.75;100.0
15558;BME280;7880;50.110;9.372;2024-01-30T14:08:58;8.621723348856904;;;8.75;100.0
15558;BME280;7880;50.110;9.372;2024-01-30T14:13:59;8.646934314077953;;;8.75;100.0
15558;BME280;7880;50.110;9.372;2024-01-30T14:19:03;8.581385819637216;;;8.687;100.0
15558;BME280;7880;50.110;9.372;2024-01-30T14:24:07;8.460373343736865;;;8.625;100.0
15558;BME280;7880;50.110;9.372;2024-01-30T14:29:12;8.50575300255441;;;8.625;100.0
15558;BME280;7880;50.110;9.372;2024-01-30T14:34:18;8.389782810211182;;;8.562;100.0
15558;BME280;7880;50.110;9.372;2024-01-30T14:39:24;8.490626446995885;;;8.625;100.0
15558;BME280;7880;50.110;9.372;2024-01-30T14:44:25;8.379698452935553;;;8.562;100.0
15558;BME280;7880;50.110;9.372;2024-01-30T14:49:28;8.309107984602452;;;8.5;100.0
15558;BME280;7880;50.110;9.372;2024-01-30T14:54:34;8.36961409682408;;;8.5;100.0
15558;BME280;7880;50.110;9.372;2024-01-30T14:59:38;8.198180221044458;;;8.375;100.0
15558;BME280;7880;50.110;9.372;2024-01-30T15:04:42;8.203222389059373;;;8.375;100.0
15558;BME280;7880;50.110;9.372;2024-01-30T15:09:52;7.794807722815312;;;8.0;100.0
15558;BME280;7880;50.110;9.372;2024-01-30T15:14:51;7.512448082328774;;;7.75;100.0
15558;BME280;7880;50.110;9.372;2024-01-30T15:19:55;7.295636835001642;;;7.437;100.0
15558;BME280;7880;50.110;9.372;2024-01-30T15:24:58;7.5830379068851474;;;7.562;100.0
15558;BME280;7880;50.110;9.372;2024-01-30T15:30:01;7.381352845206857;;;7.562;100.0
15558;BME280;7880;50.110;9.372;2024-01-30T15:35:08;7.194794577738503;;;7.375;100.0
15558;BME280;7880;50.110;9.372;2024-01-30T15:40:11;7.174626140255714;;;7.312;100.0
15558;BME280;7880;50.110;9.372;2024-01-30T15:45:10;7.078826125804335;;;7.187;100.0
15558;BME280;7880;50.110;9.372;2024-01-30T15:50:13;6.877142228279263;;;7.062;100.0
15558;BME280;7880;50.110;9.372;2024-01-30T15:55:16;6.695627118647098;;;6.812;100.0
15558;BME280;7880;50.110;9.372;2024-01-30T16:00:20;6.559491033951053;;;6.625;100.0
15558;BME280;7880;50.110;9.372;2024-01-30T16:05:23;6.554448960814625;;;6.625;100.0
15558;BME280;7880;50.110;9.372;2024-01-30T16:10:27;6.4031869020545855;;;6.5;100.0
15558;BME280;7880;50.110;9.372;2024-01-30T16:15:32;6.1359579050506;;;6.25;100.0
15558;BME280;7880;50.110;9.372;2024-01-30T16:20:35;6.1964625120221175;;;6.25;100.0
15558;BME280;7880;50.110;9.372;2024-01-30T16:25:41;6.085537431255216;;;6.187;100.0
15558;BME280;7880;50.110;9.372;2024-01-30T16:30:42;6.176294305041665;;;6.25;100.0
15558;BME280;7880;50.110;9.372;2024-01-30T16:35:48;5.833435498835752;;;6.0;100.0
15558;BME280;7880;50.110;9.372;2024-01-30T16:40:52;5.813267375674331;;;5.875;100.0
15558;BME280;7880;50.110;9.372;2024-01-30T16:45:52;5.692258734494681;;;5.812;100.0
15558;BME280;7880;50.110;9.372;2024-01-30T16:50:55;5.803183315839851;;;5.812;100.0
15558;BME280;7880;50.110;9.372;2024-01-30T16:56:02;5.813267375674331;;;5.875;100.0
15558;BME280;7880;50.110;9.372;2024-01-30T17:01:02;5.883855827111984;;;5.875;100.0
15558;BME280;7880;50.110;9.372;2024-01-30T17:06:10;5.7830151996633505;;;5.875;100.0
15558;BME280;7880;50.110;9.372;2024-01-30T17:11:16;5.717468854249455;;;5.687;100.0
15558;BME280;7880;50.110;9.372;2024-01-30T17:16:17;5.6468805372715;;;5.75;100.0
15558;BME280;7880;50.110;9.372;2024-01-30T17:21:22;5.535956154414452;;;5.625;100.0
15558;BME280;7880;50.110;9.372;2024-01-30T17:26:31;5.662006600393215;;;5.687;100.0
15558;BME280;7880;50.110;9.372;2024-01-30T17:31:30;5.56116622905829;;;5.625;100.0
15558;BME280;7880;50.110;9.372;2024-01-30T17:36:33;5.7073848054744305;;;5.75;100.0
15558;BME280;7880;50.110;9.372;2024-01-30T17:41:39;5.505704074446112;;;5.625;100.0
15558;BME280;7880;50.110;9.372;2024-01-30T17:46:50;5.616628418886103;;;5.625;100.0
15558;BME280;7880;50.110;9.372;2024-01-30T17:51:46;5.651922558021033;;;5.687;100.0
15558;BME280;7880;50.110;9.372;2024-01-30T17:56:50;5.934276184492046;;;6.0;100.0
15558;BME280;7880;50.110;9.372;2024-01-30T18:01:56;6.105705617280909;;;6.125;100.0
15558;BME280;7880;50.110;9.372;2024-01-30T18:06:55;5.883855827111984;;;6.0;100.0
15558;BME280;7880;50.110;9.372;2024-01-30T18:12:04;6.2115886703133585;;;6.187;100.0
15558;BME280;7880;50.110;9.372;2024-01-30T18:17:13;6.231756885442882;;;6.312;100.0
15558;BME280;7880;50.110;9.372;2024-01-30T18:22:17;6.6502484001743145;;;6.687;100.0
15558;BME280;7880;50.110;9.372;2024-01-30T18:27:21;7.280510488990695;;;7.25;100.0
15558;BME280;7880;50.110;9.372;2024-01-30T18:32:23;7.225047242693836;;;7.375;100.0
15558;BME280;7880;50.110;9.372;2024-01-30T18:37:27;7.497321698773885;;;7.562;100.0
15558;BME280;7880;50.110;9.372;2024-01-30T18:42:32;7.467068939522141;;;7.625;100.0
15558;BME280;7880;50.110;9.372;2024-01-30T18:47:33;7.5275744685030075;;;7.625;100.0
15558;BME280;7880;50.110;9.372;2024-01-30T18:52:38;7.638501380482921;;;7.75;100.0
15558;BME280;7880;50.110;9.372;2024-01-30T18:57:40;7.7242177271284165;;;7.812;100.0
15558;BME280;7880;50.110;9.372;2024-01-30T19:02:47;7.749428433325375;;;7.812;100.0
15558;BME280;7880;50.110;9.372;2024-01-30T19:07:58;7.915819276706316;;;7.937;100.0
15558;BME280;7880;50.110;9.372;2024-01-30T19:12:57;7.845229183230549;;;7.875;100.0
15558;BME280;7880;50.110;9.372;2024-01-30T19:17:56;7.809934157883982;;;7.875;100.0
15558;BME280;7880;50.110;9.372;2024-01-30T19:23:05;7.754470575437881;;;7.812;100.0
15558;BME280;7880;50.110;9.372;2024-01-30T19:28:12;7.840187035879353;;;7.875;100.0
15558;BME280;7880;50.110;9.372;2024-01-30T19:33:14;7.825060595571995;;;7.875;100.0
15558;BME280;7880;50.110;9.372;2024-01-30T19:38:16;7.779681290365988;;;7.812;100.0
15558;BME280;7880;50.110;9.372;2024-01-30T19:43:22;7.840187035879353;;;7.937;100.0
15558;BME280;7880;50.110;9.372;2024-01-30T19:48:27;7.7897655783744995;;;7.875;100.0
15558;BME280;7880;50.110;9.372;2024-01-30T19:53:26;7.830102742050076;;;7.875;100.0
15558;BME280;7880;50.110;9.372;2024-01-30T19:58:28;7.8149763034889475;;;7.875;100.0
15558;BME280;7880;50.110;9.372;2024-01-30T20:03:33;7.809934157883982;;;7.875;100.0
15558;BME280;7880;50.110;9.372;2024-01-30T20:08:39;7.759512717841426;;;7.812;100.0
15558;BME280;7880;50.110;9.372;2024-01-30T20:13:41;7.749428433325375;;;7.812;100.0
15558;BME280;7880;50.110;9.372;2024-01-30T20:18:54;7.749428433325375;;;7.812;100.0
15558;BME280;7880;50.110;9.372;2024-01-30T20:23:50;7.779681290365988;;;7.812;100.0
15558;BME280;7880;50.110;9.372;2024-01-30T20:28:55;7.739344149973476;;;7.812;100.0
15558;BME280;7880;50.110;9.372;2024-01-30T20:33:58;7.714133446686901;;;7.75;100.0
15558;BME280;7880;50.110;9.372;2024-01-30T20:39:05;7.69396488929633;;;7.75;100.0
15558;BME280;7880;50.110;9.372;2024-01-30T20:44:06;7.613290706300177;;;7.687;100.0
15558;BME280;7880;50.110;9.372;2024-01-30T20:49:09;7.628417109936708;;;7.687;100.0
15558;BME280;7880;50.110;9.372;2024-01-30T20:54:13;7.577995774667943;;;7.625;100.0
15558;BME280;7880;50.110;9.372;2024-01-30T20:59:19;7.567911511106649;;;7.625;100.0
15558;BME280;7880;50.110;9.372;2024-01-30T21:04:19;7.547742987476522;;;7.625;100.0
15558;BME280;7880;50.110;9.372;2024-01-30T21:09:23;7.658669925067807;;;7.687;100.0
15558;BME280;7880;50.110;9.372;2024-01-30T21:14:28;7.603206438664347;;;7.687;100.0
15558;BME280;7880;50.110;9.372;2024-01-30T21:19:32;7.699007028207416;;;7.75;100.0
15558;BME280;7880;50.110;9.372;2024-01-30T21:24:36;7.683880612347275;;;7.75;100.0
15558;BME280;7880;50.110;9.372;2024-01-30T21:29:42;7.709091306902701;;;7.75;100.0
15558;BME280;7880;50.110;9.372;2024-01-30T21:34:51;7.7242177271284165;;;7.75;100.0
15558;BME280;7880;50.110;9.372;2024-01-30T21:39:48;7.58808003939339;;;7.687;100.0
15558;BME280;7880;50.110;9.372;2024-01-30T21:44:55;7.618332840554649;;;7.625;100.0
15558;BME280;7880;50.110;9.372;2024-01-30T21:49:58;7.56286937976256;;;7.562;100.0
15558;BME280;7880;50.110;9.372;2024-01-30T21:55:04;7.58808003939339;;;7.562;100.0
15558;BME280;7880;50.110;9.372;2024-01-30T22:00:09;7.5830379068851474;;;7.625;100.0
15558;BME280;7880;50.110;9.372;2024-01-30T22:05:10;7.59816430528299;;;7.562;100.0
15558;BME280;7880;50.110;9.372;2024-01-30T22:10:15;7.567911511106649;;;7.562;100.0
15558;BME280;7880;50.110;9.372;2024-01-30T22:15:19;7.5578272487095095;;;7.562;100.0
15558;BME280;7880;50.110;9.372;2024-01-30T22:20:25;7.537658727407688;;;7.562;100.0
15558;BME280;7880;50.110;9.372;2024-01-30T22:25:25;7.537658727407688;;;7.562;100.0
15558;BME280;7880;50.110;9.372;2024-01-30T22:30:29;7.51749021076248;;;7.562;100.0
15558;BME280;7880;50.110;9.372;2024-01-30T22:35:33;7.567911511106649;;;7.625;100.0
15558;BME280;7880;50.110;9.372;2024-01-30T22:40:41;7.603206438664347;;;7.625;100.0
15558;BME280;7880;50.110;9.372;2024-01-30T22:45:42;7.51749021076248;;;7.562;100.0
15558;BME280;7880;50.110;9.372;2024-01-30T22:50:49;7.51749021076248;;;7.562;100.0
15558;BME280;7880;50.110;9.372;2024-01-30T22:55:52;7.567911511106649;;;7.625;100.0
15558;BME280;7880;50.110;9.372;2024-01-30T23:00:55;7.56286937976256;;;7.562;100.0
15558;BME280;7880;50.110;9.372;2024-01-30T23:05:59;7.497321698773885;;;7.562;100.0
15558;BME280;7880;50.110;9.372;2024-01-30T23:11:03;7.477153191441903;;;7.5;100.0
15558;BME280;7880;50.110;9.372;2024-01-30T23:16:06;7.477153191441903;;;7.5;100.0
15558;BME280;7880;50.110;9.372;2024-01-30T23:19:33;7.477153191441903;;;7.5;100.0
15558;BME280;7880;50.110;9.372;2024-01-30T23:24:38;7.431774066970684;;;7.437;100.0
15558;BME280;7880;50.110;9.372;2024-01-30T23:29:38;7.426731943484628;;;7.437;100.0
15558;BME280;7880;50.110;9.372;2024-01-30T23:34:54;7.35614224523888;;;7.375;100.0
15558;BME280;7880;50.110;9.372;2024-01-30T23:39:51;7.265384145599091;;;7.312;100.0
15558;BME280;7880;50.110;9.372;2024-01-30T23:44:51;7.139331385865807;;;7.187;100.0
15558;BME280;7880;50.110;9.372;2024-01-30T23:50:03;6.8872264120960605;;;6.937;100.0
15558;BME280;7880;50.110;9.372;2024-01-30T23:55:16;6.77630045413971;;;6.812;100.0
